sensor_id;sensor_type;location;lat;lon;timestamp;pressure;altitude;pressure_sealevel;temperature;humidity
59103;BME280;43999;51.660;5.616;2023-04-09T00:00:32;102356.09;;;9.90;100.00
59103;BME280;43999;51.660;5.616;2023-04-09T00:03:00;102359.56;;;9.91;100.00
59103;BME280;43999;51.660;5.616;2023-04-09T00:05:32;102357.03;;;9.87;100.00
59103;BME280;43999;51.660;5.616;2023-04-09T00:08:07;102365.72;;;9.88;100.00
59103;BME280;43999;51.660;5.616;2023-04-09T00:10:40;102351.06;;;9.82;100.00
59103;BME280;43999;51.660;5.616;2023-04-09T00:13:11;102362.28;;;9.86;100.00
59103;BME280;43999;51.660;5.616;2023-04-09T00:15:38;102355.38;;;9.83;100.00
59103;BME280;43999;51.660;5.616;2023-04-09T00:18:09;102358.84;;;9.85;100.00
59103;BME280;43999;51.660;5.616;2023-04-09T00:20:39;102359.72;;;9.84;100.00
59103;BME280;43999;51.660;5.616;2023-04-09T00:23:08;102357.16;;;9.83;100.00
59103;BME280;43999;51.660;5.616;2023-04-09T00:25:40;102344.94;;;9.82;100.00
59103;BME280;43999;51.660;5.616;2023-04-09T00:28:11;102345.88;;;9.81;100.00
59103;BME280;43999;51.660;5.616;2023-04-09T00:30:38;102328.47;;;9.78;100.00
59103;BME280;43999;51.660;5.616;2023-04-09T00:33:06;102335.44;;;9.79;100.00
59103;BME280;43999;51.660;5.616;2023-04-09T00:35:33;102333.69;;;9.78;100.00
59103;BME280;43999;51.660;5.616;2023-04-09T00:38:02;102338.09;;;9.78;100.00
59103;BME280;43999;51.660;5.616;2023-04-09T00:40:31;102332.91;;;9.76;100.00
59103;BME280;43999;51.660;5.616;2023-04-09T00:42:58;102339.09;;;9.72;100.00
59103;BME280;43999;51.660;5.616;2023-04-09T00:45:28;102335.56;;;9.75;100.00
59103;BME280;43999;51.660;5.616;2023-04-09T00:47:58;102339.06;;;9.74;100.00
59103;BME280;43999;51.660;5.616;2023-04-09T00:50:30;102334.75;;;9.71;100.00
59103;BME280;43999;51.660;5.616;2023-04-09T00:53:00;102326.88;;;9.73;100.00
59103;BME280;43999;51.660;5.616;2023-04-09T00:55:30;102326.91;;;9.71;100.00
59103;BME280;43999;51.660;5.616;2023-04-09T00:57:58;102328.63;;;9.72;100.00
59103;BME280;43999;51.660;5.616;2023-04-09T01:00:26;102329.56;;;9.69;100.00
59103;BME280;43999;51.660;5.616;2023-04-09T01:02:56;102328.75;;;9.67;100.00
59103;BME280;43999;51.660;5.616;2023-04-09T01:06:32;102323.50;;;9.67;100.00
59103;BME280;43999;51.660;5.616;2023-04-09T01:09:02;102324.41;;;9.66;100.00
59103;BME280;43999;51.660;5.616;2023-04-09T01:14:48;102323.69;;;9.61;100.00
59103;BME280;43999;51.660;5.616;2023-04-09T01:17:59;102318.41;;;9.63;100.00
59103;BME280;43999;51.660;5.616;2023-04-09T01:21:05;102309.78;;;9.59;100.00
59103;BME280;43999;51.660;5.616;2023-04-09T01:26:59;102316.75;;;9.59;100.00
59103;BME280;43999;51.660;5.616;2023-04-09T01:29:47;102321.19;;;9.57;100.00
59103;BME280;43999;51.660;5.616;2023-04-09T01:32:22;102316.88;;;9.54;100.00
59103;BME280;43999;51.660;5.616;2023-04-09T01:34:52;102311.59;;;9.56;100.00
59103;BME280;43999;51.660;5.616;2023-04-09T01:37:24;102315.97;;;9.55;100.00
59103;BME280;43999;51.660;5.616;2023-04-09T01:39:54;102312.53;;;9.55;100.00
59103;BME280;43999;51.660;5.616;2023-04-09T01:42:24;102296.84;;;9.53;100.00
59103;BME280;43999;51.660;5.616;2023-04-09T01:45:02;102308.97;;;9.56;100.00
59103;BME280;43999;51.660;5.616;2023-04-09T01:47:32;102302.13;;;9.51;100.00
59103;BME280;43999;51.660;5.616;2023-04-09T01:50:01;102307.31;;;9.53;100.00
59103;BME280;43999;51.660;5.616;2023-04-09T01:52:29;102313.44;;;9.52;100.00
59103;BME280;43999;51.660;5.616;2023-04-09T01:54:58;102306.50;;;9.51;100.00
59103;BME280;43999;51.660;5.616;2023-04-09T01:57:26;102308.25;;;9.50;100.00
59103;BME280;43999;51.660;5.616;2023-04-09T01:59:56;102301.28;;;9.49;100.00
59103;BME280;43999;51.660;5.616;2023-04-09T02:03:09;102303.06;;;9.49;100.00
59103;BME280;43999;51.660;5.616;2023-04-09T02:08:32;102306.59;;;9.46;100.00
59103;BME280;43999;51.660;5.616;2023-04-09T02:11:04;102308.41;;;9.44;100.00
59103;BME280;43999;51.660;5.616;2023-04-09T02:13:40;102298.06;;;9.40;100.00
59103;BME280;43999;51.660;5.616;2023-04-09T02:16:10;102310.13;;;9.45;100.00
59103;BME280;43999;51.660;5.616;2023-04-09T02:18:42;102307.59;;;9.42;100.00
59103;BME280;43999;51.660;5.616;2023-04-09T02:21:17;102314.53;;;9.43;100.00
59103;BME280;43999;51.660;5.616;2023-04-09T02:23:46;102304.19;;;9.39;100.00
59103;BME280;43999;51.660;5.616;2023-04-09T02:26:14;102306.75;;;9.40;100.00
59103;BME280;43999;51.660;5.616;2023-04-09T02:28:42;102306.78;;;9.39;100.00
59103;BME280;43999;51.660;5.616;2023-04-09T02:31:20;102298.94;;;9.39;100.00
59103;BME280;43999;51.660;5.616;2023-04-09T02:33:48;102304.25;;;9.36;100.00
59103;BME280;43999;51.660;5.616;2023-04-09T02:36:17;102300.75;;;9.37;100.00
59103;BME280;43999;51.660;5.616;2023-04-09T02:38:44;102288.59;;;9.34;100.00
59103;BME280;43999;51.660;5.616;2023-04-09T02:41:12;102292.97;;;9.33;100.00
59103;BME280;43999;51.660;5.616;2023-04-09T02:43:40;102287.88;;;9.29;100.00
59103;BME280;43999;51.660;5.616;2023-04-09T02:46:08;102292.09;;;9.35;100.00
59103;BME280;43999;51.660;5.616;2023-04-09T02:48:38;102285.13;;;9.33;100.00
59103;BME280;43999;51.660;5.616;2023-04-09T02:51:07;102285.19;;;9.32;100.00
59103;BME280;43999;51.660;5.616;2023-04-09T02:53:35;102290.44;;;9.30;100.00
59103;BME280;43999;51.660;5.616;2023-04-09T02:56:04;102294.03;;;9.26;100.00
59103;BME280;43999;51.660;5.616;2023-04-09T02:58:31;102291.41;;;9.26;100.00
59103;BME280;43999;51.660;5.616;2023-04-09T03:00:58;102286.19;;;9.26;100.00
59103;BME280;43999;51.660;5.616;2023-04-09T03:03:27;102287.97;;;9.24;100.00
59103;BME280;43999;51.660;5.616;2023-04-09T03:05:55;102278.41;;;9.23;100.00
59103;BME280;43999;51.660;5.616;2023-04-09T03:08:24;102281.00;;;9.25;100.00
59103;BME280;43999;51.660;5.616;2023-04-09T03:10:59;102283.63;;;9.23;100.00
59103;BME280;43999;51.660;5.616;2023-04-09T03:13:27;102279.41;;;9.19;100.00
59103;BME280;43999;51.660;5.616;2023-04-09T03:15:57;102281.09;;;9.22;100.00
59103;BME280;43999;51.660;5.616;2023-04-09T03:18:33;102279.38;;;9.21;100.00
59103;BME280;43999;51.660;5.616;2023-04-09T03:21:08;102276.78;;;9.19;100.00
59103;BME280;43999;51.660;5.616;2023-04-09T03:23:45;102276.81;;;9.18;100.00
59103;BME280;43999;51.660;5.616;2023-04-09T03:26:18;102270.03;;;9.10;100.00
59103;BME280;43999;51.660;5.616;2023-04-09T03:28:51;102282.09;;;9.16;100.00
59103;BME280;43999;51.660;5.616;2023-04-09T03:31:22;102271.69;;;9.14;100.00
59103;BME280;43999;51.660;5.616;2023-04-09T03:33:49;102267.34;;;9.13;100.00
59103;BME280;43999;51.660;5.616;2023-04-09T03:36:17;102261.25;;;9.13;100.00
59103;BME280;43999;51.660;5.616;2023-04-09T03:38:55;102268.22;;;9.14;100.00
59103;BME280;43999;51.660;5.616;2023-04-09T03:41:35;102256.94;;;9.10;100.00
59103;BME280;43999;51.660;5.616;2023-04-09T03:44:08;102251.88;;;9.04;100.00
59103;BME280;43999;51.660;5.616;2023-04-09T03:46:46;102261.44;;;9.05;100.00
59103;BME280;43999;51.660;5.616;2023-04-09T03:49:26;102250.25;;;9.00;100.00
59103;BME280;43999;51.660;5.616;2023-04-09T03:51:59;102258.09;;;9.00;100.00
59103;BME280;43999;51.660;5.616;2023-04-09T03:54:35;102253.94;;;8.91;100.00
59103;BME280;43999;51.660;5.616;2023-04-09T03:57:07;102258.28;;;8.92;100.00
59103;BME280;43999;51.660;5.616;2023-04-09T03:59:38;102253.09;;;8.91;100.00
59103;BME280;43999;51.660;5.616;2023-04-09T04:02:18;102247.94;;;8.88;100.00
59103;BME280;43999;51.660;5.616;2023-04-09T04:05:00;102248.03;;;8.83;100.00
59103;BME280;43999;51.660;5.616;2023-04-09T04:07:35;102254.19;;;8.81;100.00
59103;BME280;43999;51.660;5.616;2023-04-09T04:10:11;102250.75;;;8.78;100.00
59103;BME280;43999;51.660;5.616;2023-04-09T04:12:44;102249.06;;;8.76;100.00
59103;BME280;43999;51.660;5.616;2023-04-09T04:15:21;102255.13;;;8.78;100.00
59103;BME280;43999;51.660;5.616;2023-04-09T04:17:54;102257.84;;;8.73;100.00
59103;BME280;43999;51.660;5.616;2023-04-09T04:20:53;102259.66;;;8.70;100.00
59103;BME280;43999;51.660;5.616;2023-04-09T04:23:21;102256.31;;;8.65;100.00
59103;BME280;43999;51.660;5.616;2023-04-09T04:25:59;102254.56;;;8.65;100.00
59103;BME280;43999;51.660;5.616;2023-04-09T04:28:32;102252.06;;;8.59;100.00
59103;BME280;43999;51.660;5.616;2023-04-09T04:31:07;102257.38;;;8.56;100.00
59103;BME280;43999;51.660;5.616;2023-04-09T04:33:41;102253.16;;;8.49;100.00
59103;BME280;43999;51.660;5.616;2023-04-09T04:36:16;102261.16;;;8.41;100.00
59103;BME280;43999;51.660;5.616;2023-04-09T04:38:55;102256.09;;;8.33;100.00
59103;BME280;43999;51.660;5.616;2023-04-09T04:41:29;102257.94;;;8.28;100.00
59103;BME280;43999;51.660;5.616;2023-04-09T04:44:17;102257.38;;;8.14;100.00
59103;BME280;43999;51.660;5.616;2023-04-09T04:46:52;102261.00;;;8.06;100.00
59103;BME280;43999;51.660;5.616;2023-04-09T04:49:20;102256.00;;;7.96;100.00
59103;BME280;43999;51.660;5.616;2023-04-09T04:51:48;102259.78;;;7.82;100.00
59103;BME280;43999;51.660;5.616;2023-04-09T04:54:16;102263.34;;;7.77;100.00
59103;BME280;43999;51.660;5.616;2023-04-09T04:56:51;102260.06;;;7.67;100.00
59103;BME280;43999;51.660;5.616;2023-04-09T04:59:31;102267.13;;;7.60;100.00
59103;BME280;43999;51.660;5.616;2023-04-09T05:02:02;102261.19;;;7.52;100.00
59103;BME280;43999;51.660;5.616;2023-04-09T05:04:36;102257.06;;;7.40;100.00
59103;BME280;43999;51.660;5.616;2023-04-09T05:07:08;102264.06;;;7.38;100.00
59103;BME280;43999;51.660;5.616;2023-04-09T05:09:44;102264.13;;;7.33;100.00
59103;BME280;43999;51.660;5.616;2023-04-09T05:12:13;102265.97;;;7.28;100.00
59103;BME280;43999;51.660;5.616;2023-04-09T05:14:47;102262.53;;;7.25;100.00
59103;BME280;43999;51.660;5.616;2023-04-09T05:17:14;102261.75;;;7.20;100.00
59103;BME280;43999;51.660;5.616;2023-04-09T05:19:51;102265.25;;;7.18;100.00
59103;BME280;43999;51.660;5.616;2023-04-09T05:22:25;102264.47;;;7.13;100.00
59103;BME280;43999;51.660;5.616;2023-04-09T05:24:55;102263.66;;;7.10;100.00
59103;BME280;43999;51.660;5.616;2023-04-09T05:27:24;102268.88;;;7.10;100.00
59103;BME280;43999;51.660;5.616;2023-04-09T05:29:59;102262.88;;;7.05;100.00
59103;BME280;43999;51.660;5.616;2023-04-09T05:32:28;102269.84;;;7.03;100.00
59103;BME280;43999;51.660;5.616;2023-04-09T05:34:57;102259.47;;;7.01;100.00
59103;BME280;43999;51.660;5.616;2023-04-09T05:37:27;102266.44;;;7.00;100.00
59103;BME280;43999;51.660;5.616;2023-04-09T05:39:55;102268.16;;;7.00;100.00
59103;BME280;43999;51.660;5.616;2023-04-09T05:42:24;102270.78;;;6.98;100.00
59103;BME280;43999;51.660;5.616;2023-04-09T05:45:01;102269.88;;;7.01;100.00
59103;BME280;43999;51.660;5.616;2023-04-09T05:47:29;102273.25;;;7.06;100.00
59103;BME280;43999;51.660;5.616;2023-04-09T05:50:05;102269.72;;;7.10;100.00
59103;BME280;43999;51.660;5.616;2023-04-09T05:52:39;102274.88;;;7.15;100.00
59103;BME280;43999;51.660;5.616;2023-04-09T05:55:08;102265.22;;;7.20;100.00
59103;BME280;43999;51.660;5.616;2023-04-09T05:57:42;102259.88;;;7.28;100.00
59103;BME280;43999;51.660;5.616;2023-04-09T06:00:12;102258.06;;;7.33;100.00
59103;BME280;43999;51.660;5.616;2023-04-09T06:02:44;102263.19;;;7.39;100.00
59103;BME280;43999;51.660;5.616;2023-04-09T06:05:12;102267.31;;;7.49;100.00
59103;BME280;43999;51.660;5.616;2023-04-09T06:07:39;102276.03;;;7.50;100.00
59103;BME280;43999;51.660;5.616;2023-04-09T06:10:08;102275.97;;;7.53;100.00
59103;BME280;43999;51.660;5.616;2023-04-09T06:12:36;102275.88;;;7.58;100.00
59103;BME280;43999;51.660;5.616;2023-04-09T06:15:05;102274.91;;;7.63;100.00
59103;BME280;43999;51.660;5.616;2023-04-09T06:17:33;102274.88;;;7.65;100.00
59103;BME280;43999;51.660;5.616;2023-04-09T06:20:01;102269.63;;;7.66;100.00
59103;BME280;43999;51.660;5.616;2023-04-09T06:22:31;102276.41;;;7.75;100.00
59103;BME280;43999;51.660;5.616;2023-04-09T06:24:59;102271.06;;;7.83;100.00
59103;BME280;43999;51.660;5.616;2023-04-09T06:27:26;102277.75;;;7.95;100.00
59103;BME280;43999;51.660;5.616;2023-04-09T06:29:53;102282.06;;;7.97;100.00
59103;BME280;43999;51.660;5.616;2023-04-09T06:32:21;102287.25;;;8.00;100.00
59103;BME280;43999;51.660;5.616;2023-04-09T06:34:48;102285.28;;;8.10;100.00
59103;BME280;43999;51.660;5.616;2023-04-09T06:37:17;102286.75;;;8.25;100.00
59103;BME280;43999;51.660;5.616;2023-04-09T06:39:50;102286.56;;;8.33;100.00
59103;BME280;43999;51.660;5.616;2023-04-09T06:42:27;102296.19;;;8.32;100.00
59103;BME280;43999;51.660;5.616;2023-04-09T06:45:04;102296.94;;;8.37;100.00
59103;BME280;43999;51.660;5.616;2023-04-09T06:47:34;102290.75;;;8.41;100.00
59103;BME280;43999;51.660;5.616;2023-04-09T06:50:03;102294.88;;;8.53;100.00
59103;BME280;43999;51.660;5.616;2023-04-09T06:52:31;102291.16;;;8.64;100.00
59103;BME280;43999;51.660;5.616;2023-04-09T06:54:58;102290.16;;;8.71;100.00
59103;BME280;43999;51.660;5.616;2023-04-09T06:57:26;102290.06;;;8.74;100.00
59103;BME280;43999;51.660;5.616;2023-04-09T06:59:54;102288.06;;;8.85;100.00
59103;BME280;43999;51.660;5.616;2023-04-09T07:02:23;102293.06;;;8.94;100.00
59103;BME280;43999;51.660;5.616;2023-04-09T07:04:52;102295.47;;;9.04;100.00
59103;BME280;43999;51.660;5.616;2023-04-09T07:07:22;102297.97;;;9.08;100.00
59103;BME280;43999;51.660;5.616;2023-04-09T07:09:53;102303.09;;;9.13;100.00
59103;BME280;43999;51.660;5.616;2023-04-09T07:15:04;102303.22;;;9.43;100.00
59103;BME280;43999;51.660;5.616;2023-04-09T07:17:35;102303.78;;;9.54;100.00
59103;BME280;43999;51.660;5.616;2023-04-09T07:20:06;102299.19;;;9.64;100.00
59103;BME280;43999;51.660;5.616;2023-04-09T07:22:34;102301.69;;;9.68;100.00
59103;BME280;43999;51.660;5.616;2023-04-09T07:25:03;102302.38;;;9.75;100.00
59103;BME280;43999;51.660;5.616;2023-04-09T07:27:32;102306.88;;;9.70;100.00
59103;BME280;43999;51.660;5.616;2023-04-09T07:30:00;102307.78;;;9.69;100.00
59103;BME280;43999;51.660;5.616;2023-04-09T07:32:30;102300.94;;;9.63;100.00
59103;BME280;43999;51.660;5.616;2023-04-09T07:34:59;102302.66;;;9.64;100.00
59103;BME280;43999;51.660;5.616;2023-04-09T07:37:26;102306.03;;;9.68;100.00
59103;BME280;43999;51.660;5.616;2023-04-09T07:39:53;102304.06;;;9.78;100.00
59103;BME280;43999;51.660;5.616;2023-04-09T07:42:28;102304.78;;;9.83;100.00
59103;BME280;43999;51.660;5.616;2023-04-09T07:44:57;102302.84;;;9.90;100.00
59103;BME280;43999;51.660;5.616;2023-04-09T07:47:27;102304.31;;;10.00;100.00
59103;BME280;43999;51.660;5.616;2023-04-09T07:49:54;102300.50;;;10.12;100.00
59103;BME280;43999;51.660;5.616;2023-04-09T07:52:23;102298.69;;;10.14;100.00
59103;BME280;43999;51.660;5.616;2023-04-09T07:54:51;102301.34;;;10.12;100.00
59103;BME280;43999;51.660;5.616;2023-04-09T07:57:21;102295.22;;;10.13;100.00
59103;BME280;43999;51.660;5.616;2023-04-09T07:59:51;102293.22;;;10.21;100.00
59103;BME280;43999;51.660;5.616;2023-04-09T08:02:20;102300.03;;;10.29;100.00
59103;BME280;43999;51.660;5.616;2023-04-09T08:04:51;102279.66;;;10.38;100.00
59103;BME280;43999;51.660;5.616;2023-04-09T08:07:25;102292.31;;;10.54;100.00
59103;BME280;43999;51.660;5.616;2023-04-09T08:09:54;102291.00;;;10.67;100.00
59103;BME280;43999;51.660;5.616;2023-04-09T08:12:24;102301.84;;;10.85;100.00
59103;BME280;43999;51.660;5.616;2023-04-09T08:14:52;102298.69;;;11.02;100.00
59103;BME280;43999;51.660;5.616;2023-04-09T08:17:19;102309.53;;;11.18;100.00
59103;BME280;43999;51.660;5.616;2023-04-09T08:19:48;102302.09;;;11.30;100.00
59103;BME280;43999;51.660;5.616;2023-04-09T08:22:21;102293.75;;;11.44;100.00
59103;BME280;43999;51.660;5.616;2023-04-09T08:24:54;102300.56;;;11.50;100.00
59103;BME280;43999;51.660;5.616;2023-04-09T08:27:24;102293.34;;;11.57;100.00
59103;BME280;43999;51.660;5.616;2023-04-09T08:29:53;102294.25;;;11.56;100.00
59103;BME280;43999;51.660;5.616;2023-04-09T08:32:21;102296.78;;;11.59;100.00
59103;BME280;43999;51.660;5.616;2023-04-09T08:34:50;102302.13;;;11.56;100.00
59103;BME280;43999;51.660;5.616;2023-04-09T08:37:24;102298.75;;;11.52;100.00
59103;BME280;43999;51.660;5.616;2023-04-09T08:39:56;102299.94;;;11.43;100.00
59103;BME280;43999;51.660;5.616;2023-04-09T08:42:43;102298.22;;;11.42;100.00
59103;BME280;43999;51.660;5.616;2023-04-09T08:45:15;102303.50;;;11.41;100.00
59103;BME280;43999;51.660;5.616;2023-04-09T08:47:44;102299.22;;;11.38;100.00
59103;BME280;43999;51.660;5.616;2023-04-09T08:50:17;102295.91;;;11.33;100.00
59103;BME280;43999;51.660;5.616;2023-04-09T08:52:48;102305.38;;;11.37;100.00
59103;BME280;43999;51.660;5.616;2023-04-09T08:55:18;102288.13;;;11.30;100.00
59103;BME280;43999;51.660;5.616;2023-04-09T08:57:46;102292.28;;;11.37;100.00
59103;BME280;43999;51.660;5.616;2023-04-09T09:00:19;102287.03;;;11.37;100.00
59103;BME280;43999;51.660;5.616;2023-04-09T09:05:37;102287.66;;;11.44;100.00
59103;BME280;43999;51.660;5.616;2023-04-09T09:08:10;102276.25;;;11.45;100.00
59103;BME280;43999;51.660;5.616;2023-04-09T09:10:49;102280.38;;;11.52;100.00
59103;BME280;43999;51.660;5.616;2023-04-09T09:13:26;102274.22;;;11.53;100.00
59103;BME280;43999;51.660;5.616;2023-04-09T09:16:11;102283.72;;;11.57;100.00
59103;BME280;43999;51.660;5.616;2023-04-09T09:18:43;102281.72;;;11.64;100.00
59103;BME280;43999;51.660;5.616;2023-04-09T09:21:16;102278.72;;;11.75;100.00
59103;BME280;43999;51.660;5.616;2023-04-09T09:23:45;102276.72;;;11.81;100.00
59103;BME280;43999;51.660;5.616;2023-04-09T09:26:17;102285.47;;;11.82;100.00
59103;BME280;43999;51.660;5.616;2023-04-09T09:28:50;102274.75;;;11.87;100.00
59103;BME280;43999;51.660;5.616;2023-04-09T09:31:22;102275.59;;;11.89;100.00
59103;BME280;43999;51.660;5.616;2023-04-09T09:33:50;102275.59;;;11.89;100.00
59103;BME280;43999;51.660;5.616;2023-04-09T09:36:33;102273.66;;;11.94;100.00
59103;BME280;43999;51.660;5.616;2023-04-09T09:39:11;102266.78;;;11.90;100.00
59103;BME280;43999;51.660;5.616;2023-04-09T09:41:41;102270.97;;;11.95;100.00
59103;BME280;43999;51.660;5.616;2023-04-09T09:44:31;102268.69;;;12.10;100.00
59103;BME280;43999;51.660;5.616;2023-04-09T09:46:59;102277.59;;;12.29;100.00
59103;BME280;43999;51.660;5.616;2023-04-09T09:49:30;102263.75;;;12.48;100.00
59103;BME280;43999;51.660;5.616;2023-04-09T09:51:59;102256.97;;;12.64;100.00
59103;BME280;43999;51.660;5.616;2023-04-09T09:54:41;102262.59;;;12.77;98.29
59103;BME280;43999;51.660;5.616;2023-04-09T09:57:13;102261.66;;;13.21;100.00
59103;BME280;43999;51.660;5.616;2023-04-09T09:59:53;102248.50;;;13.83;99.75
59103;BME280;43999;51.660;5.616;2023-04-09T10:02:27;102238.94;;;14.37;97.13
59103;BME280;43999;51.660;5.616;2023-04-09T10:05:07;102238.94;;;14.93;92.95
59103;BME280;43999;51.660;5.616;2023-04-09T10:07:36;102237.06;;;15.30;89.34
59103;BME280;43999;51.660;5.616;2023-04-09T10:10:07;102233.88;;;15.74;85.73
59103;BME280;43999;51.660;5.616;2023-04-09T10:12:35;102241.38;;;15.99;83.28
59103;BME280;43999;51.660;5.616;2023-04-09T10:15:04;102244.38;;;15.75;80.63
59103;BME280;43999;51.660;5.616;2023-04-09T10:17:33;102230.22;;;15.76;82.81
59103;BME280;43999;51.660;5.616;2023-04-09T10:20:18;102234.28;;;15.66;82.54
59103;BME280;43999;51.660;5.616;2023-04-09T10:22:56;102234.38;;;15.47;82.90
59103;BME280;43999;51.660;5.616;2023-04-09T10:25:42;102234.09;;;15.36;81.66
59103;BME280;43999;51.660;5.616;2023-04-09T10:28:17;102237.69;;;15.17;80.17
59103;BME280;43999;51.660;5.616;2023-04-09T10:30:47;102229.94;;;14.97;80.42
59103;BME280;43999;51.660;5.616;2023-04-09T10:33:23;102220.22;;;14.80;82.24
59103;BME280;43999;51.660;5.616;2023-04-09T10:36:09;102229.28;;;14.92;82.32
59103;BME280;43999;51.660;5.616;2023-04-09T10:38:44;102219.75;;;15.24;83.40
59103;BME280;43999;51.660;5.616;2023-04-09T10:41:28;102211.03;;;15.39;79.48
59103;BME280;43999;51.660;5.616;2023-04-09T10:43:59;102219.56;;;15.45;78.61
59103;BME280;43999;51.660;5.616;2023-04-09T10:46:35;102204.13;;;15.37;75.05
59103;BME280;43999;51.660;5.616;2023-04-09T10:49:38;102210.97;;;15.23;73.28
59103;BME280;43999;51.660;5.616;2023-04-09T10:52:10;102199.41;;;15.09;73.63
59103;BME280;43999;51.660;5.616;2023-04-09T10:54:44;102214.63;;;15.03;73.44
59103;BME280;43999;51.660;5.616;2023-04-09T10:57:16;102208.75;;;14.98;75.36
59103;BME280;43999;51.660;5.616;2023-04-09T10:59:51;102207.25;;;14.93;72.97
59103;BME280;43999;51.660;5.616;2023-04-09T11:06:03;102191.28;;;15.47;68.30
59103;BME280;43999;51.660;5.616;2023-04-09T11:08:37;102188.16;;;16.05;73.83
59103;BME280;43999;51.660;5.616;2023-04-09T11:11:06;102188.13;;;16.21;66.51
59103;BME280;43999;51.660;5.616;2023-04-09T11:13:34;102178.53;;;16.51;65.01
59103;BME280;43999;51.660;5.616;2023-04-09T11:16:01;102185.34;;;17.01;61.45
59103;BME280;43999;51.660;5.616;2023-04-09T11:18:35;102186.81;;;17.50;58.53
59103;BME280;43999;51.660;5.616;2023-04-09T11:21:06;102179.00;;;18.04;60.04
59103;BME280;43999;51.660;5.616;2023-04-09T11:23:37;102183.66;;;18.68;57.61
59103;BME280;43999;51.660;5.616;2023-04-09T11:26:09;102168.56;;;19.22;56.16
59103;BME280;43999;51.660;5.616;2023-04-09T11:28:58;102176.69;;;19.70;52.97
59103;BME280;43999;51.660;5.616;2023-04-09T11:31:34;102168.63;;;20.09;52.12
59103;BME280;43999;51.660;5.616;2023-04-09T11:34:39;102178.41;;;20.56;48.84
59103;BME280;43999;51.660;5.616;2023-04-09T11:37:15;102181.44;;;20.52;46.67
59103;BME280;43999;51.660;5.616;2023-04-09T11:39:57;102176.47;;;20.58;47.48
59103;BME280;43999;51.660;5.616;2023-04-09T11:42:30;102165.09;;;20.81;48.09
59103;BME280;43999;51.660;5.616;2023-04-09T11:45:29;102179.31;;;21.04;44.40
59103;BME280;43999;51.660;5.616;2023-04-09T11:48:09;102178.66;;;20.53;44.02
59103;BME280;43999;51.660;5.616;2023-04-09T11:50:45;102167.31;;;19.90;44.23
59103;BME280;43999;51.660;5.616;2023-04-09T11:53:19;102166.56;;;19.38;44.77
59103;BME280;43999;51.660;5.616;2023-04-09T11:55:54;102170.59;;;18.92;45.68
59103;BME280;43999;51.660;5.616;2023-04-09T11:58:26;102169.66;;;18.66;48.20
59103;BME280;43999;51.660;5.616;2023-04-09T12:00:57;102162.69;;;18.78;48.55
59103;BME280;43999;51.660;5.616;2023-04-09T12:03:33;102165.06;;;18.95;48.08
59103;BME280;43999;51.660;5.616;2023-04-09T12:06:12;102158.91;;;19.21;48.20
59103;BME280;43999;51.660;5.616;2023-04-09T12:08:45;102158.97;;;19.58;46.32
59103;BME280;43999;51.660;5.616;2023-04-09T12:11:35;102156.41;;;19.82;45.04
59103;BME280;43999;51.660;5.616;2023-04-09T12:14:04;102159.41;;;20.01;46.22
59103;BME280;43999;51.660;5.616;2023-04-09T12:16:44;102157.50;;;19.91;45.22
59103;BME280;43999;51.660;5.616;2023-04-09T12:19:17;102167.56;;;19.74;45.20
59103;BME280;43999;51.660;5.616;2023-04-09T12:21:53;102170.13;;;19.50;43.64
59103;BME280;43999;51.660;5.616;2023-04-09T12:24:25;102161.34;;;19.24;45.65
59103;BME280;43999;51.660;5.616;2023-04-09T12:26:55;102153.47;;;19.22;46.19
59103;BME280;43999;51.660;5.616;2023-04-09T12:29:25;102154.00;;;19.40;46.31
59103;BME280;43999;51.660;5.616;2023-04-09T12:31:53;102158.84;;;19.59;45.43
59103;BME280;43999;51.660;5.616;2023-04-09T12:34:23;102152.06;;;19.55;45.46
59103;BME280;43999;51.660;5.616;2023-04-09T12:36:53;102152.81;;;19.31;44.94
59103;BME280;43999;51.660;5.616;2023-04-09T12:39:22;102153.81;;;19.05;44.95
59103;BME280;43999;51.660;5.616;2023-04-09T12:41:53;102155.81;;;19.01;46.68
59103;BME280;43999;51.660;5.616;2023-04-09T12:44:28;102153.06;;;19.15;47.28
59103;BME280;43999;51.660;5.616;2023-04-09T12:47:00;102147.31;;;19.22;46.66
59103;BME280;43999;51.660;5.616;2023-04-09T12:49:28;102146.25;;;19.37;45.72
59103;BME280;43999;51.660;5.616;2023-04-09T12:52:00;102135.91;;;19.45;45.51
59103;BME280;43999;51.660;5.616;2023-04-09T12:54:32;102134.03;;;19.71;43.69
59103;BME280;43999;51.660;5.616;2023-04-09T12:57:02;102140.94;;;19.87;44.40
59103;BME280;43999;51.660;5.616;2023-04-09T12:59:41;102141.34;;;20.18;44.37
59103;BME280;43999;51.660;5.616;2023-04-09T13:02:11;102140.81;;;20.37;42.92
59103;BME280;43999;51.660;5.616;2023-04-09T13:04:39;102125.59;;;20.15;43.24
59103;BME280;43999;51.660;5.616;2023-04-09T13:07:08;102146.66;;;19.94;43.64
59103;BME280;43999;51.660;5.616;2023-04-09T13:09:40;102137.13;;;19.65;42.99
59103;BME280;43999;51.660;5.616;2023-04-09T13:12:08;102133.28;;;19.32;42.25
59103;BME280;43999;51.660;5.616;2023-04-09T13:14:41;102134.56;;;19.01;42.99
59103;BME280;43999;51.660;5.616;2023-04-09T13:17:10;102131.66;;;18.78;43.89
59103;BME280;43999;51.660;5.616;2023-04-09T13:19:37;102135.66;;;18.71;44.81
59103;BME280;43999;51.660;5.616;2023-04-09T13:22:07;102118.41;;;19.17;44.62
59103;BME280;43999;51.660;5.616;2023-04-09T13:24:37;102124.13;;;19.37;44.56
59103;BME280;43999;51.660;5.616;2023-04-09T13:27:08;102132.34;;;19.33;43.80
59103;BME280;43999;51.660;5.616;2023-04-09T13:29:35;102132.25;;;19.59;43.30
59103;BME280;43999;51.660;5.616;2023-04-09T13:32:03;102126.75;;;19.49;43.48
59103;BME280;43999;51.660;5.616;2023-04-09T13:34:34;102127.72;;;19.48;43.21